LIT Airport (Bill And Hillary Clinton National/Adams Field) Information

FAA: LIT - ICAO: KLIT

LIT Airport Location

State Arkansas
County Pulaski
City Little Rock
LIT Airport is 2 miles east of Little Rock, AR.
Latitude 34-43-46.0000N
Longitude 092-13-29.2000W
Elevation 266ft

KLIT Airport METARs

METAR KLIT 032253Z 23012G19KT 7SM OVC011 18/15 A3000 RMK AO2 SLP159 T01780150 $
Altimeter 30.00"
Temperature 17.8°C (64.0°F)
Wind 230° at 12KT with gusts to 19KT
Clouds overcast at 1,100ft
Visibility 7.0mi
Time observed: 2021-12-03T22:53:00Z

LIT Airport Details

Status Operational
Activation April 1940
Ownership Public
Usage Public
Chart MEMPHIS
ATC on-site Yes
Beacon schedule sunset-sunrise
Beacon color clear green

LIT Airport Contacts

Owner CITY OF LITTLE ROCK
Owner address 1 AIRPORT DRIVE, LITTLE ROCK, AR 72202
Owner phone 501-372-3439
Manager DAVID MANTZ, ADMINISTRATOR
Manager address 2729 HIGHWAY 65 & 82, LAKE VILLAGE, AR 71653
Manager phone (870) 265-9395

LIT Airport (Bill And Hillary Clinton National/Adams Field) Radio Frequencies

LIT (Airport) Radio Frequencies

UNICOM 122.95
Common traffic advisory frequency (CTAF) N/A